sensor_id;sensor_type;location;lat;lon;timestamp;P1;durP1;ratioP1;P2;durP2;ratioP2
635;SDS011;302;50.206;8.196;2023-08-21T00:00:24;10.02;;;9.23;;
635;SDS011;302;50.206;8.196;2023-08-21T00:02:49;9.20;;;8.47;;
635;SDS011;302;50.206;8.196;2023-08-21T00:05:14;9.00;;;8.30;;
635;SDS011;302;50.206;8.196;2023-08-21T00:07:40;8.30;;;7.60;;
635;SDS011;302;50.206;8.196;2023-08-21T00:10:05;9.32;;;8.52;;
635;SDS011;302;50.206;8.196;2023-08-21T00:12:30;9.60;;;8.80;;
635;SDS011;302;50.206;8.196;2023-08-21T00:14:55;9.10;;;8.32;;
635;SDS011;302;50.206;8.196;2023-08-21T00:17:20;9.63;;;8.83;;
635;SDS011;302;50.206;8.196;2023-08-21T00:19:45;9.07;;;8.38;;
635;SDS011;302;50.206;8.196;2023-08-21T00:22:11;9.02;;;8.25;;
635;SDS011;302;50.206;8.196;2023-08-21T00:24:36;9.77;;;8.98;;
635;SDS011;302;50.206;8.196;2023-08-21T00:27:01;10.83;;;9.93;;
635;SDS011;302;50.206;8.196;2023-08-21T00:29:28;8.90;;;8.00;;
635;SDS011;302;50.206;8.196;2023-08-21T00:31:53;8.60;;;8.00;;
635;SDS011;302;50.206;8.196;2023-08-21T00:34:18;9.27;;;8.48;;
635;SDS011;302;50.206;8.196;2023-08-21T00:36:44;9.73;;;8.83;;
635;SDS011;302;50.206;8.196;2023-08-21T00:39:09;9.10;;;8.30;;
635;SDS011;302;50.206;8.196;2023-08-21T00:41:34;8.80;;;8.10;;
635;SDS011;302;50.206;8.196;2023-08-21T00:43:59;8.87;;;8.07;;
635;SDS011;302;50.206;8.196;2023-08-21T00:46:24;9.00;;;8.30;;
635;SDS011;302;50.206;8.196;2023-08-21T00:48:50;9.70;;;8.90;;
635;SDS011;302;50.206;8.196;2023-08-21T00:51:15;9.40;;;8.50;;
635;SDS011;302;50.206;8.196;2023-08-21T00:53:41;8.93;;;8.23;;
635;SDS011;302;50.206;8.196;2023-08-21T00:56:07;11.30;;;9.00;;
635;SDS011;302;50.206;8.196;2023-08-21T00:58:32;9.98;;;9.07;;
635;SDS011;302;50.206;8.196;2023-08-21T01:00:57;9.40;;;8.60;;
635;SDS011;302;50.206;8.196;2023-08-21T01:03:23;9.67;;;8.77;;
635;SDS011;302;50.206;8.196;2023-08-21T01:05:49;10.65;;;9.75;;
635;SDS011;302;50.206;8.196;2023-08-21T01:08:14;9.10;;;8.30;;
635;SDS011;302;50.206;8.196;2023-08-21T01:15:51;9.82;;;8.93;;
635;SDS011;302;50.206;8.196;2023-08-21T01:18:18;9.40;;;8.63;;
635;SDS011;302;50.206;8.196;2023-08-21T01:20:44;9.40;;;8.33;;
635;SDS011;302;50.206;8.196;2023-08-21T01:23:10;9.80;;;8.90;;
635;SDS011;302;50.206;8.196;2023-08-21T01:25:35;9.35;;;8.55;;
635;SDS011;302;50.206;8.196;2023-08-21T01:28:00;9.63;;;8.63;;
635;SDS011;302;50.206;8.196;2023-08-21T01:30:26;9.23;;;8.43;;
635;SDS011;302;50.206;8.196;2023-08-21T01:35:27;10.02;;;9.13;;
635;SDS011;302;50.206;8.196;2023-08-21T01:37:52;9.75;;;8.95;;
635;SDS011;302;50.206;8.196;2023-08-21T01:40:21;9.33;;;8.53;;
635;SDS011;302;50.206;8.196;2023-08-21T01:42:46;9.20;;;8.40;;
635;SDS011;302;50.206;8.196;2023-08-21T01:45:12;9.07;;;8.38;;
635;SDS011;302;50.206;8.196;2023-08-21T01:47:37;9.98;;;9.18;;
635;SDS011;302;50.206;8.196;2023-08-21T01:50:02;9.03;;;8.23;;
635;SDS011;302;50.206;8.196;2023-08-21T01:52:27;10.00;;;9.20;;
635;SDS011;302;50.206;8.196;2023-08-21T01:54:53;10.10;;;9.30;;
635;SDS011;302;50.206;8.196;2023-08-21T01:57:18;9.83;;;8.93;;
635;SDS011;302;50.206;8.196;2023-08-21T01:59:43;9.40;;;8.60;;
635;SDS011;302;50.206;8.196;2023-08-21T02:02:08;9.57;;;8.77;;
635;SDS011;302;50.206;8.196;2023-08-21T02:04:33;9.10;;;8.40;;
635;SDS011;302;50.206;8.196;2023-08-21T02:06:59;9.68;;;8.77;;
635;SDS011;302;50.206;8.196;2023-08-21T02:09:24;10.07;;;9.17;;
635;SDS011;302;50.206;8.196;2023-08-21T02:11:49;9.50;;;8.67;;
635;SDS011;302;50.206;8.196;2023-08-21T02:14:14;9.83;;;9.03;;
635;SDS011;302;50.206;8.196;2023-08-21T02:16:39;8.90;;;8.00;;
635;SDS011;302;50.206;8.196;2023-08-21T02:19:04;10.05;;;9.23;;
635;SDS011;302;50.206;8.196;2023-08-21T02:21:29;10.00;;;9.13;;
635;SDS011;302;50.206;8.196;2023-08-21T02:23:55;10.40;;;9.37;;
635;SDS011;302;50.206;8.196;2023-08-21T02:26:20;10.32;;;9.52;;
635;SDS011;302;50.206;8.196;2023-08-21T02:28:45;10.47;;;9.57;;
635;SDS011;302;50.206;8.196;2023-08-21T02:31:11;11.40;;;10.40;;
635;SDS011;302;50.206;8.196;2023-08-21T02:33:36;10.63;;;9.80;;
635;SDS011;302;50.206;8.196;2023-08-21T02:36:02;10.07;;;9.27;;
635;SDS011;302;50.206;8.196;2023-08-21T02:38:28;10.43;;;9.63;;
635;SDS011;302;50.206;8.196;2023-08-21T02:40:53;11.90;;;9.83;;
635;SDS011;302;50.206;8.196;2023-08-21T02:43:18;11.45;;;10.55;;
635;SDS011;302;50.206;8.196;2023-08-21T02:45:44;10.20;;;9.40;;
635;SDS011;302;50.206;8.196;2023-08-21T02:48:09;9.90;;;8.93;;
635;SDS011;302;50.206;8.196;2023-08-21T02:50:34;11.00;;;10.02;;
635;SDS011;302;50.206;8.196;2023-08-21T02:52:59;10.83;;;9.93;;
635;SDS011;302;50.206;8.196;2023-08-21T02:55:24;10.53;;;9.73;;
635;SDS011;302;50.206;8.196;2023-08-21T02:57:49;11.15;;;10.05;;
635;SDS011;302;50.206;8.196;2023-08-21T03:00:15;11.30;;;10.20;;
635;SDS011;302;50.206;8.196;2023-08-21T03:02:40;10.27;;;9.47;;
635;SDS011;302;50.206;8.196;2023-08-21T03:05:08;10.52;;;9.63;;
635;SDS011;302;50.206;8.196;2023-08-21T03:07:34;10.90;;;9.90;;
635;SDS011;302;50.206;8.196;2023-08-21T03:09:59;10.47;;;9.57;;
635;SDS011;302;50.206;8.196;2023-08-21T03:12:24;10.73;;;9.83;;
635;SDS011;302;50.206;8.196;2023-08-21T03:14:49;11.03;;;10.17;;
635;SDS011;302;50.206;8.196;2023-08-21T03:17:15;11.20;;;10.20;;
635;SDS011;302;50.206;8.196;2023-08-21T03:19:40;10.93;;;10.03;;
635;SDS011;302;50.206;8.196;2023-08-21T03:22:05;11.70;;;10.57;;
635;SDS011;302;50.206;8.196;2023-08-21T03:24:30;11.50;;;10.50;;
635;SDS011;302;50.206;8.196;2023-08-21T03:26:56;11.23;;;10.33;;
635;SDS011;302;50.206;8.196;2023-08-21T03:29:21;11.00;;;10.20;;
635;SDS011;302;50.206;8.196;2023-08-21T03:31:48;10.83;;;9.87;;
635;SDS011;302;50.206;8.196;2023-08-21T03:34:14;10.45;;;9.65;;
635;SDS011;302;50.206;8.196;2023-08-21T03:36:39;11.17;;;10.27;;
635;SDS011;302;50.206;8.196;2023-08-21T03:39:04;11.33;;;10.43;;
635;SDS011;302;50.206;8.196;2023-08-21T03:41:30;12.02;;;11.02;;
635;SDS011;302;50.206;8.196;2023-08-21T03:43:56;12.60;;;11.50;;
635;SDS011;302;50.206;8.196;2023-08-21T03:46:21;11.52;;;10.32;;
635;SDS011;302;50.206;8.196;2023-08-21T03:48:46;12.90;;;11.50;;
635;SDS011;302;50.206;8.196;2023-08-21T03:51:11;11.00;;;10.10;;
635;SDS011;302;50.206;8.196;2023-08-21T03:53:36;11.43;;;10.53;;
635;SDS011;302;50.206;8.196;2023-08-21T03:56:02;11.13;;;10.20;;
635;SDS011;302;50.206;8.196;2023-08-21T03:58:27;11.87;;;10.87;;
635;SDS011;302;50.206;8.196;2023-08-21T04:00:52;11.93;;;11.00;;
635;SDS011;302;50.206;8.196;2023-08-21T04:03:18;12.70;;;11.80;;
635;SDS011;302;50.206;8.196;2023-08-21T04:05:43;12.03;;;10.90;;
635;SDS011;302;50.206;8.196;2023-08-21T04:08:08;13.00;;;11.90;;
635;SDS011;302;50.206;8.196;2023-08-21T04:10:33;11.20;;;10.27;;
635;SDS011;302;50.206;8.196;2023-08-21T04:12:58;11.47;;;10.57;;
635;SDS011;302;50.206;8.196;2023-08-21T04:15:24;11.20;;;10.30;;
635;SDS011;302;50.206;8.196;2023-08-21T04:17:49;11.57;;;10.57;;
635;SDS011;302;50.206;8.196;2023-08-21T04:20:15;12.60;;;11.40;;
635;SDS011;302;50.206;8.196;2023-08-21T04:22:40;11.93;;;10.67;;
635;SDS011;302;50.206;8.196;2023-08-21T04:25:05;11.80;;;10.67;;
635;SDS011;302;50.206;8.196;2023-08-21T04:27:31;11.82;;;10.90;;
635;SDS011;302;50.206;8.196;2023-08-21T04:29:58;12.77;;;11.57;;
635;SDS011;302;50.206;8.196;2023-08-21T04:32:24;12.93;;;11.75;;
635;SDS011;302;50.206;8.196;2023-08-21T04:34:49;12.87;;;11.60;;
635;SDS011;302;50.206;8.196;2023-08-21T04:37:15;12.67;;;11.47;;
635;SDS011;302;50.206;8.196;2023-08-21T04:39:40;12.52;;;11.27;;
635;SDS011;302;50.206;8.196;2023-08-21T04:42:05;12.65;;;11.55;;
635;SDS011;302;50.206;8.196;2023-08-21T04:44:30;12.40;;;11.40;;
635;SDS011;302;50.206;8.196;2023-08-21T04:46:55;11.70;;;10.60;;
635;SDS011;302;50.206;8.196;2023-08-21T04:49:21;11.43;;;10.53;;
635;SDS011;302;50.206;8.196;2023-08-21T04:51:46;12.13;;;11.10;;
635;SDS011;302;50.206;8.196;2023-08-21T04:54:11;11.32;;;10.32;;
635;SDS011;302;50.206;8.196;2023-08-21T04:56:36;11.17;;;10.10;;
635;SDS011;302;50.206;8.196;2023-08-21T04:59:01;11.50;;;10.47;;
635;SDS011;302;50.206;8.196;2023-08-21T05:01:27;11.03;;;10.13;;
635;SDS011;302;50.206;8.196;2023-08-21T05:03:52;11.10;;;10.20;;
635;SDS011;302;50.206;8.196;2023-08-21T05:06:19;11.10;;;10.18;;
635;SDS011;302;50.206;8.196;2023-08-21T05:08:44;10.60;;;9.70;;
635;SDS011;302;50.206;8.196;2023-08-21T05:11:10;11.40;;;10.40;;
635;SDS011;302;50.206;8.196;2023-08-21T05:13:35;11.00;;;10.10;;
635;SDS011;302;50.206;8.196;2023-08-21T05:16:00;11.70;;;10.67;;
635;SDS011;302;50.206;8.196;2023-08-21T05:18:26;12.03;;;10.83;;
635;SDS011;302;50.206;8.196;2023-08-21T05:20:53;18.23;;;11.57;;
635;SDS011;302;50.206;8.196;2023-08-21T05:23:19;11.70;;;10.60;;
635;SDS011;302;50.206;8.196;2023-08-21T05:25:44;11.40;;;10.47;;
635;SDS011;302;50.206;8.196;2023-08-21T05:28:09;12.50;;;11.40;;
635;SDS011;302;50.206;8.196;2023-08-21T05:30:37;12.30;;;11.10;;
635;SDS011;302;50.206;8.196;2023-08-21T05:33:03;12.93;;;11.73;;
635;SDS011;302;50.206;8.196;2023-08-21T05:35:28;12.57;;;11.47;;
635;SDS011;302;50.206;8.196;2023-08-21T05:37:54;12.90;;;11.63;;
635;SDS011;302;50.206;8.196;2023-08-21T05:40:19;13.90;;;12.60;;
635;SDS011;302;50.206;8.196;2023-08-21T05:42:44;11.97;;;10.97;;
635;SDS011;302;50.206;8.196;2023-08-21T05:45:10;11.80;;;10.90;;
635;SDS011;302;50.206;8.196;2023-08-21T05:47:35;12.57;;;11.47;;
635;SDS011;302;50.206;8.196;2023-08-21T05:50:00;12.23;;;11.18;;
635;SDS011;302;50.206;8.196;2023-08-21T05:52:25;13.40;;;12.20;;
635;SDS011;302;50.206;8.196;2023-08-21T05:54:51;12.47;;;11.37;;
635;SDS011;302;50.206;8.196;2023-08-21T05:57:16;13.13;;;12.03;;
635;SDS011;302;50.206;8.196;2023-08-21T05:59:44;13.30;;;12.10;;
635;SDS011;302;50.206;8.196;2023-08-21T06:02:10;13.43;;;12.23;;
635;SDS011;302;50.206;8.196;2023-08-21T06:04:35;13.63;;;12.43;;
635;SDS011;302;50.206;8.196;2023-08-21T06:07:00;13.90;;;12.60;;
635;SDS011;302;50.206;8.196;2023-08-21T06:09:25;13.35;;;12.15;;
635;SDS011;302;50.206;8.196;2023-08-21T06:11:51;13.10;;;11.60;;
635;SDS011;302;50.206;8.196;2023-08-21T06:14:16;12.93;;;11.83;;
635;SDS011;302;50.206;8.196;2023-08-21T06:16:41;14.30;;;13.00;;
635;SDS011;302;50.206;8.196;2023-08-21T06:19:06;15.27;;;13.97;;
635;SDS011;302;50.206;8.196;2023-08-21T06:21:32;13.53;;;12.30;;
635;SDS011;302;50.206;8.196;2023-08-21T06:23:57;13.10;;;12.00;;
635;SDS011;302;50.206;8.196;2023-08-21T06:26:22;14.27;;;13.07;;
635;SDS011;302;50.206;8.196;2023-08-21T06:28:47;14.27;;;13.07;;
635;SDS011;302;50.206;8.196;2023-08-21T06:31:12;14.60;;;13.40;;
635;SDS011;302;50.206;8.196;2023-08-21T06:33:40;14.63;;;13.33;;
635;SDS011;302;50.206;8.196;2023-08-21T06:36:06;15.20;;;13.80;;
635;SDS011;302;50.206;8.196;2023-08-21T06:38:31;14.90;;;13.57;;
635;SDS011;302;50.206;8.196;2023-08-21T06:40:56;13.85;;;12.73;;
635;SDS011;302;50.206;8.196;2023-08-21T06:43:21;14.17;;;13.00;;
635;SDS011;302;50.206;8.196;2023-08-21T06:45:46;14.60;;;13.20;;
635;SDS011;302;50.206;8.196;2023-08-21T06:48:12;13.50;;;12.20;;
635;SDS011;302;50.206;8.196;2023-08-21T06:50:37;13.83;;;12.63;;
635;SDS011;302;50.206;8.196;2023-08-21T06:53:02;17.47;;;14.30;;
635;SDS011;302;50.206;8.196;2023-08-21T06:55:27;13.53;;;12.43;;
635;SDS011;302;50.206;8.196;2023-08-21T06:57:52;13.03;;;11.93;;
635;SDS011;302;50.206;8.196;2023-08-21T07:00:17;14.18;;;12.93;;
635;SDS011;302;50.206;8.196;2023-08-21T07:02:43;14.17;;;12.90;;
635;SDS011;302;50.206;8.196;2023-08-21T07:05:08;14.03;;;12.73;;
635;SDS011;302;50.206;8.196;2023-08-21T07:07:33;14.20;;;13.00;;
635;SDS011;302;50.206;8.196;2023-08-21T07:09:58;14.03;;;12.73;;
635;SDS011;302;50.206;8.196;2023-08-21T07:12:23;13.80;;;12.57;;
635;SDS011;302;50.206;8.196;2023-08-21T07:14:49;13.40;;;12.10;;
635;SDS011;302;50.206;8.196;2023-08-21T07:17:14;13.97;;;12.73;;
635;SDS011;302;50.206;8.196;2023-08-21T07:19:39;12.87;;;11.87;;
635;SDS011;302;50.206;8.196;2023-08-21T07:22:04;14.20;;;12.80;;
635;SDS011;302;50.206;8.196;2023-08-21T07:24:29;13.33;;;11.83;;
635;SDS011;302;50.206;8.196;2023-08-21T07:26:55;14.55;;;13.30;;
635;SDS011;302;50.206;8.196;2023-08-21T07:29:20;13.30;;;12.13;;
635;SDS011;302;50.206;8.196;2023-08-21T07:31:45;14.37;;;13.07;;
635;SDS011;302;50.206;8.196;2023-08-21T07:34:10;12.77;;;11.77;;
635;SDS011;302;50.206;8.196;2023-08-21T07:36:35;13.77;;;12.47;;
635;SDS011;302;50.206;8.196;2023-08-21T07:39:00;13.52;;;12.32;;
635;SDS011;302;50.206;8.196;2023-08-21T07:41:26;13.93;;;12.83;;
635;SDS011;302;50.206;8.196;2023-08-21T07:43:51;13.43;;;12.27;;
635;SDS011;302;50.206;8.196;2023-08-21T07:46:16;12.40;;;11.30;;
635;SDS011;302;50.206;8.196;2023-08-21T07:48:43;12.10;;;11.10;;
635;SDS011;302;50.206;8.196;2023-08-21T07:51:08;12.30;;;11.30;;
635;SDS011;302;50.206;8.196;2023-08-21T07:53:33;11.20;;;10.30;;
635;SDS011;302;50.206;8.196;2023-08-21T07:55:59;11.03;;;10.13;;
635;SDS011;302;50.206;8.196;2023-08-21T07:58:24;10.60;;;9.87;;
635;SDS011;302;50.206;8.196;2023-08-21T08:00:50;10.57;;;9.57;;
635;SDS011;302;50.206;8.196;2023-08-21T08:03:15;10.38;;;9.57;;
635;SDS011;302;50.206;8.196;2023-08-21T08:05:41;10.87;;;9.90;;
635;SDS011;302;50.206;8.196;2023-08-21T08:08:07;10.30;;;9.50;;
635;SDS011;302;50.206;8.196;2023-08-21T08:10:32;9.77;;;8.80;;
635;SDS011;302;50.206;8.196;2023-08-21T08:12:57;9.02;;;8.32;;
635;SDS011;302;50.206;8.196;2023-08-21T08:15:22;9.07;;;8.27;;
635;SDS011;302;50.206;8.196;2023-08-21T08:17:47;9.03;;;8.33;;
635;SDS011;302;50.206;8.196;2023-08-21T08:20:17;8.70;;;8.00;;
635;SDS011;302;50.206;8.196;2023-08-21T08:22:42;9.60;;;8.80;;
635;SDS011;302;50.206;8.196;2023-08-21T08:25:07;8.52;;;7.85;;
635;SDS011;302;50.206;8.196;2023-08-21T08:27:32;7.53;;;6.93;;
635;SDS011;302;50.206;8.196;2023-08-21T08:29:58;6.97;;;6.32;;
635;SDS011;302;50.206;8.196;2023-08-21T08:32:23;7.23;;;6.63;;
635;SDS011;302;50.206;8.196;2023-08-21T08:34:48;7.13;;;6.13;;
635;SDS011;302;50.206;8.196;2023-08-21T08:37:13;6.00;;;5.50;;
635;SDS011;302;50.206;8.196;2023-08-21T08:39:38;6.17;;;5.67;;
635;SDS011;302;50.206;8.196;2023-08-21T08:42:05;5.80;;;5.40;;
635;SDS011;302;50.206;8.196;2023-08-21T08:44:30;5.20;;;4.80;;
635;SDS011;302;50.206;8.196;2023-08-21T08:46:57;6.80;;;4.87;;
635;SDS011;302;50.206;8.196;2023-08-21T08:49:22;5.50;;;5.00;;
635;SDS011;302;50.206;8.196;2023-08-21T08:51:49;5.97;;;5.47;;
635;SDS011;302;50.206;8.196;2023-08-21T08:54:14;4.73;;;4.43;;
635;SDS011;302;50.206;8.196;2023-08-21T08:56:40;5.47;;;5.00;;
635;SDS011;302;50.206;8.196;2023-08-21T08:59:07;5.80;;;5.30;;
635;SDS011;302;50.206;8.196;2023-08-21T09:01:32;5.87;;;5.37;;
635;SDS011;302;50.206;8.196;2023-08-21T09:03:57;5.43;;;5.03;;
635;SDS011;302;50.206;8.196;2023-08-21T09:06:23;5.87;;;5.27;;
635;SDS011;302;50.206;8.196;2023-08-21T09:08:54;6.77;;;4.30;;
635;SDS011;302;50.206;8.196;2023-08-21T09:11:20;4.70;;;4.40;;
635;SDS011;302;50.206;8.196;2023-08-21T09:13:45;5.97;;;5.47;;
635;SDS011;302;50.206;8.196;2023-08-21T09:16:10;5.00;;;4.53;;
635;SDS011;302;50.206;8.196;2023-08-21T09:18:35;4.83;;;4.43;;
635;SDS011;302;50.206;8.196;2023-08-21T09:21:01;4.63;;;4.23;;
635;SDS011;302;50.206;8.196;2023-08-21T09:23:27;3.70;;;3.43;;
635;SDS011;302;50.206;8.196;2023-08-21T09:25:53;4.60;;;4.20;;
635;SDS011;302;50.206;8.196;2023-08-21T09:28:19;4.30;;;4.00;;
635;SDS011;302;50.206;8.196;2023-08-21T09:30:48;4.60;;;4.20;;
635;SDS011;302;50.206;8.196;2023-08-21T09:33:16;2.17;;;1.97;;
635;SDS011;302;50.206;8.196;2023-08-21T09:35:41;3.07;;;2.30;;
635;SDS011;302;50.206;8.196;2023-08-21T09:38:07;3.00;;;2.67;;
635;SDS011;302;50.206;8.196;2023-08-21T09:40:32;3.10;;;2.87;;
635;SDS011;302;50.206;8.196;2023-08-21T09:42:57;2.50;;;2.40;;
635;SDS011;302;50.206;8.196;2023-08-21T09:45:24;4.40;;;3.07;;
635;SDS011;302;50.206;8.196;2023-08-21T09:47:51;2.90;;;2.70;;
635;SDS011;302;50.206;8.196;2023-08-21T09:50:16;2.50;;;2.30;;
635;SDS011;302;50.206;8.196;2023-08-21T09:52:42;3.30;;;3.00;;
635;SDS011;302;50.206;8.196;2023-08-21T09:55:08;3.27;;;3.07;;
635;SDS011;302;50.206;8.196;2023-08-21T09:57:34;2.80;;;2.60;;
635;SDS011;302;50.206;8.196;2023-08-21T10:00:00;2.20;;;2.00;;
635;SDS011;302;50.206;8.196;2023-08-21T10:02:26;2.93;;;1.80;;
635;SDS011;302;50.206;8.196;2023-08-21T10:04:52;2.27;;;1.93;;
635;SDS011;302;50.206;8.196;2023-08-21T10:07:20;2.30;;;2.10;;
635;SDS011;302;50.206;8.196;2023-08-21T10:09:46;2.97;;;2.33;;
635;SDS011;302;50.206;8.196;2023-08-21T10:12:12;2.90;;;2.57;;
635;SDS011;302;50.206;8.196;2023-08-21T10:14:38;2.77;;;2.57;;
635;SDS011;302;50.206;8.196;2023-08-21T10:17:03;7.30;;;2.93;;
635;SDS011;302;50.206;8.196;2023-08-21T10:19:30;5.30;;;3.07;;
635;SDS011;302;50.206;8.196;2023-08-21T10:21:55;3.90;;;3.50;;
635;SDS011;302;50.206;8.196;2023-08-21T10:24:27;3.13;;;2.93;;
635;SDS011;302;50.206;8.196;2023-08-21T10:26:59;3.93;;;3.63;;
635;SDS011;302;50.206;8.196;2023-08-21T10:29:25;3.33;;;3.10;;
635;SDS011;302;50.206;8.196;2023-08-21T10:32:03;3.37;;;3.10;;
635;SDS011;302;50.206;8.196;2023-08-21T10:34:32;2.80;;;2.60;;
635;SDS011;302;50.206;8.196;2023-08-21T10:37:08;3.20;;;3.00;;
635;SDS011;302;50.206;8.196;2023-08-21T10:39:35;3.23;;;2.93;;
635;SDS011;302;50.206;8.196;2023-08-21T10:49:46;3.67;;;3.37;;
635;SDS011;302;50.206;8.196;2023-08-21T10:52:12;4.00;;;3.70;;
635;SDS011;302;50.206;8.196;2023-08-21T10:54:44;4.10;;;3.77;;
635;SDS011;302;50.206;8.196;2023-08-21T10:57:10;3.57;;;3.27;;
635;SDS011;302;50.206;8.196;2023-08-21T10:59:35;3.90;;;3.57;;
635;SDS011;302;50.206;8.196;2023-08-21T11:02:00;3.13;;;2.92;;
635;SDS011;302;50.206;8.196;2023-08-21T11:04:25;3.95;;;3.65;;
635;SDS011;302;50.206;8.196;2023-08-21T11:06:51;3.97;;;3.67;;
635;SDS011;302;50.206;8.196;2023-08-21T11:09:16;3.57;;;3.27;;
635;SDS011;302;50.206;8.196;2023-08-21T11:11:42;4.73;;;3.53;;
635;SDS011;302;50.206;8.196;2023-08-21T11:14:08;2.97;;;2.67;;
635;SDS011;302;50.206;8.196;2023-08-21T11:16:33;3.00;;;2.60;;
635;SDS011;302;50.206;8.196;2023-08-21T11:18:58;3.17;;;2.97;;
635;SDS011;302;50.206;8.196;2023-08-21T11:21:27;3.40;;;3.10;;
635;SDS011;302;50.206;8.196;2023-08-21T11:23:53;3.20;;;3.00;;
635;SDS011;302;50.206;8.196;2023-08-21T11:26:18;2.97;;;2.78;;
635;SDS011;302;50.206;8.196;2023-08-21T11:28:43;3.20;;;3.00;;
635;SDS011;302;50.206;8.196;2023-08-21T11:31:09;4.60;;;2.87;;
635;SDS011;302;50.206;8.196;2023-08-21T11:33:37;3.33;;;3.13;;
635;SDS011;302;50.206;8.196;2023-08-21T11:36:02;3.23;;;3.03;;
635;SDS011;302;50.206;8.196;2023-08-21T11:38:27;3.10;;;2.90;;
635;SDS011;302;50.206;8.196;2023-08-21T11:43:17;3.13;;;2.88;;
635;SDS011;302;50.206;8.196;2023-08-21T11:45:45;3.00;;;2.70;;
635;SDS011;302;50.206;8.196;2023-08-21T11:48:10;4.43;;;3.40;;
635;SDS011;302;50.206;8.196;2023-08-21T11:50:35;4.95;;;2.30;;
635;SDS011;302;50.206;8.196;2023-08-21T11:53:02;2.17;;;2.07;;
635;SDS011;302;50.206;8.196;2023-08-21T11:55:27;2.93;;;2.70;;
635;SDS011;302;50.206;8.196;2023-08-21T11:57:53;3.10;;;2.90;;
635;SDS011;302;50.206;8.196;2023-08-21T12:00:26;3.00;;;2.80;;
635;SDS011;302;50.206;8.196;2023-08-21T12:02:55;2.87;;;2.67;;
635;SDS011;302;50.206;8.196;2023-08-21T12:05:24;3.23;;;3.03;;
635;SDS011;302;50.206;8.196;2023-08-21T12:07:49;3.90;;;3.60;;
635;SDS011;302;50.206;8.196;2023-08-21T12:10:21;3.17;;;2.87;;
635;SDS011;302;50.206;8.196;2023-08-21T12:12:46;4.13;;;2.77;;
635;SDS011;302;50.206;8.196;2023-08-21T12:15:13;5.23;;;3.20;;
635;SDS011;302;50.206;8.196;2023-08-21T12:17:38;2.97;;;2.77;;
635;SDS011;302;50.206;8.196;2023-08-21T12:20:03;3.10;;;2.90;;
635;SDS011;302;50.206;8.196;2023-08-21T12:22:35;2.30;;;2.10;;
635;SDS011;302;50.206;8.196;2023-08-21T12:25:00;4.00;;;2.90;;
635;SDS011;302;50.206;8.196;2023-08-21T12:27:25;2.47;;;2.28;;
635;SDS011;302;50.206;8.196;2023-08-21T12:29:51;2.37;;;2.17;;
635;SDS011;302;50.206;8.196;2023-08-21T12:32:16;3.15;;;2.60;;
635;SDS011;302;50.206;8.196;2023-08-21T12:34:41;2.53;;;2.30;;
635;SDS011;302;50.206;8.196;2023-08-21T12:37:07;2.70;;;2.50;;
635;SDS011;302;50.206;8.196;2023-08-21T12:39:32;2.90;;;2.37;;
635;SDS011;302;50.206;8.196;2023-08-21T12:41:57;2.50;;;2.30;;
635;SDS011;302;50.206;8.196;2023-08-21T12:44:22;2.20;;;2.00;;
635;SDS011;302;50.206;8.196;2023-08-21T12:46:47;2.57;;;2.37;;
635;SDS011;302;50.206;8.196;2023-08-21T12:49:12;3.20;;;2.40;;
635;SDS011;302;50.206;8.196;2023-08-21T12:51:38;2.80;;;2.20;;
635;SDS011;302;50.206;8.196;2023-08-21T12:54:03;3.30;;;3.10;;
635;SDS011;302;50.206;8.196;2023-08-21T12:56:29;2.30;;;2.10;;
635;SDS011;302;50.206;8.196;2023-08-21T12:58:54;2.77;;;2.57;;
635;SDS011;302;50.206;8.196;2023-08-21T13:01:19;2.88;;;2.67;;
635;SDS011;302;50.206;8.196;2023-08-21T13:03:45;3.10;;;2.90;;
635;SDS011;302;50.206;8.196;2023-08-21T13:06:11;2.70;;;2.50;;
635;SDS011;302;50.206;8.196;2023-08-21T13:08:36;3.70;;;2.70;;
635;SDS011;302;50.206;8.196;2023-08-21T13:11:01;2.70;;;2.50;;
635;SDS011;302;50.206;8.196;2023-08-21T13:13:28;3.30;;;3.00;;
635;SDS011;302;50.206;8.196;2023-08-21T13:15:53;2.70;;;2.50;;
635;SDS011;302;50.206;8.196;2023-08-21T13:18:19;2.73;;;2.53;;
635;SDS011;302;50.206;8.196;2023-08-21T13:20:45;2.50;;;2.30;;
635;SDS011;302;50.206;8.196;2023-08-21T13:23:10;2.57;;;2.37;;
635;SDS011;302;50.206;8.196;2023-08-21T13:25:35;2.43;;;2.30;;
635;SDS011;302;50.206;8.196;2023-08-21T13:28:01;2.60;;;2.40;;
635;SDS011;302;50.206;8.196;2023-08-21T13:30:27;2.10;;;2.00;;
635;SDS011;302;50.206;8.196;2023-08-21T13:32:52;2.70;;;2.50;;
635;SDS011;302;50.206;8.196;2023-08-21T13:35:18;2.80;;;2.60;;
635;SDS011;302;50.206;8.196;2023-08-21T13:37:45;6.37;;;3.13;;
635;SDS011;302;50.206;8.196;2023-08-21T13:40:11;3.95;;;2.63;;
635;SDS011;302;50.206;8.196;2023-08-21T13:42:39;3.00;;;2.50;;
635;SDS011;302;50.206;8.196;2023-08-21T13:45:09;2.63;;;2.53;;
635;SDS011;302;50.206;8.196;2023-08-21T13:47:36;2.60;;;2.40;;
635;SDS011;302;50.206;8.196;2023-08-21T13:50:01;2.60;;;2.40;;
635;SDS011;302;50.206;8.196;2023-08-21T13:52:26;2.40;;;2.17;;
635;SDS011;302;50.206;8.196;2023-08-21T13:54:52;3.47;;;2.30;;
635;SDS011;302;50.206;8.196;2023-08-21T13:57:17;2.87;;;2.67;;
635;SDS011;302;50.206;8.196;2023-08-21T13:59:42;2.57;;;2.37;;
635;SDS011;302;50.206;8.196;2023-08-21T14:02:07;2.50;;;2.30;;
635;SDS011;302;50.206;8.196;2023-08-21T14:04:33;3.15;;;2.85;;
635;SDS011;302;50.206;8.196;2023-08-21T14:06:58;2.03;;;1.93;;
635;SDS011;302;50.206;8.196;2023-08-21T14:09:23;3.03;;;2.80;;
635;SDS011;302;50.206;8.196;2023-08-21T14:11:48;2.57;;;2.30;;
635;SDS011;302;50.206;8.196;2023-08-21T14:14:13;3.73;;;3.17;;
635;SDS011;302;50.206;8.196;2023-08-21T14:16:38;2.33;;;2.13;;
635;SDS011;302;50.206;8.196;2023-08-21T14:19:04;2.70;;;2.50;;
635;SDS011;302;50.206;8.196;2023-08-21T14:21:29;2.43;;;2.23;;
635;SDS011;302;50.206;8.196;2023-08-21T14:23:54;2.77;;;2.20;;
635;SDS011;302;50.206;8.196;2023-08-21T14:26:19;2.37;;;2.27;;
635;SDS011;302;50.206;8.196;2023-08-21T14:28:44;2.70;;;2.50;;
635;SDS011;302;50.206;8.196;2023-08-21T14:31:15;2.50;;;2.30;;
635;SDS011;302;50.206;8.196;2023-08-21T14:33:40;2.30;;;2.10;;
635;SDS011;302;50.206;8.196;2023-08-21T14:36:05;2.92;;;2.60;;
635;SDS011;302;50.206;8.196;2023-08-21T14:38:30;2.50;;;2.33;;
635;SDS011;302;50.206;8.196;2023-08-21T14:40:55;2.87;;;2.67;;
635;SDS011;302;50.206;8.196;2023-08-21T14:43:21;3.83;;;2.83;;
635;SDS011;302;50.206;8.196;2023-08-21T14:45:46;2.30;;;2.10;;
635;SDS011;302;50.206;8.196;2023-08-21T14:48:11;2.80;;;2.60;;
635;SDS011;302;50.206;8.196;2023-08-21T14:50:36;3.20;;;2.80;;
635;SDS011;302;50.206;8.196;2023-08-21T14:53:02;3.10;;;2.80;;
635;SDS011;302;50.206;8.196;2023-08-21T14:55:27;2.50;;;2.30;;
635;SDS011;302;50.206;8.196;2023-08-21T14:57:52;4.27;;;2.90;;
635;SDS011;302;50.206;8.196;2023-08-21T15:00:17;2.10;;;2.00;;
635;SDS011;302;50.206;8.196;2023-08-21T15:02:42;3.00;;;2.40;;
635;SDS011;302;50.206;8.196;2023-08-21T15:05:07;3.17;;;2.17;;
635;SDS011;302;50.206;8.196;2023-08-21T15:07:34;2.63;;;2.43;;
635;SDS011;302;50.206;8.196;2023-08-21T15:09:59;2.23;;;2.03;;
635;SDS011;302;50.206;8.196;2023-08-21T15:12:24;2.22;;;2.03;;
635;SDS011;302;50.206;8.196;2023-08-21T15:14:49;2.23;;;2.03;;
635;SDS011;302;50.206;8.196;2023-08-21T15:17:14;2.00;;;1.77;;
635;SDS011;302;50.206;8.196;2023-08-21T15:19:39;2.10;;;2.00;;
635;SDS011;302;50.206;8.196;2023-08-21T15:22:05;2.43;;;2.23;;
635;SDS011;302;50.206;8.196;2023-08-21T15:24:30;5.57;;;3.65;;
635;SDS011;302;50.206;8.196;2023-08-21T15:26:55;4.20;;;3.90;;
635;SDS011;302;50.206;8.196;2023-08-21T15:29:20;3.87;;;3.57;;
635;SDS011;302;50.206;8.196;2023-08-21T15:31:45;3.80;;;3.50;;
635;SDS011;302;50.206;8.196;2023-08-21T15:34:11;4.47;;;4.05;;
635;SDS011;302;50.206;8.196;2023-08-21T15:36:36;3.33;;;3.05;;
635;SDS011;302;50.206;8.196;2023-08-21T15:39:01;3.93;;;3.63;;
635;SDS011;302;50.206;8.196;2023-08-21T15:41:26;4.10;;;3.80;;